sensor_id;sensor_type;location;lat;lon;timestamp;P1;durP1;ratioP1;P2;durP2;ratioP2
81801;SDS011;71199;52.490;5.448;2023-07-31T00:00:03;2.80;;;1.40;;
81801;SDS011;71199;52.490;5.448;2023-07-31T00:02:29;3.15;;;1.40;;
81801;SDS011;71199;52.490;5.448;2023-07-31T00:04:54;3.97;;;1.70;;
81801;SDS011;71199;52.490;5.448;2023-07-31T00:07:20;2.60;;;1.47;;
81801;SDS011;71199;52.490;5.448;2023-07-31T00:09:45;3.13;;;1.60;;
81801;SDS011;71199;52.490;5.448;2023-07-31T00:12:10;3.33;;;1.70;;
81801;SDS011;71199;52.490;5.448;2023-07-31T00:14:36;2.73;;;1.60;;
81801;SDS011;71199;52.490;5.448;2023-07-31T00:17:01;3.93;;;2.23;;
81801;SDS011;71199;52.490;5.448;2023-07-31T00:19:26;3.90;;;1.80;;
81801;SDS011;71199;52.490;5.448;2023-07-31T00:21:52;3.83;;;1.80;;
81801;SDS011;71199;52.490;5.448;2023-07-31T00:24:17;3.37;;;1.80;;
81801;SDS011;71199;52.490;5.448;2023-07-31T00:26:42;4.50;;;1.83;;
81801;SDS011;71199;52.490;5.448;2023-07-31T00:29:08;3.00;;;1.80;;
81801;SDS011;71199;52.490;5.448;2023-07-31T00:31:33;2.70;;;1.70;;
81801;SDS011;71199;52.490;5.448;2023-07-31T00:33:58;3.57;;;1.83;;
81801;SDS011;71199;52.490;5.448;2023-07-31T00:36:24;4.17;;;1.83;;
81801;SDS011;71199;52.490;5.448;2023-07-31T00:38:49;4.03;;;1.60;;
81801;SDS011;71199;52.490;5.448;2023-07-31T00:41:14;4.37;;;1.80;;
81801;SDS011;71199;52.490;5.448;2023-07-31T00:43:40;7.83;;;2.20;;
81801;SDS011;71199;52.490;5.448;2023-07-31T00:46:05;5.40;;;2.07;;
81801;SDS011;71199;52.490;5.448;2023-07-31T00:48:32;5.32;;;2.40;;
81801;SDS011;71199;52.490;5.448;2023-07-31T00:50:58;8.80;;;2.20;;
81801;SDS011;71199;52.490;5.448;2023-07-31T00:53:24;9.05;;;2.80;;
81801;SDS011;71199;52.490;5.448;2023-07-31T00:55:50;9.05;;;2.67;;
81801;SDS011;71199;52.490;5.448;2023-07-31T00:58:15;9.25;;;3.15;;
81801;SDS011;71199;52.490;5.448;2023-07-31T01:00:41;14.00;;;3.27;;
81801;SDS011;71199;52.490;5.448;2023-07-31T01:03:06;13.77;;;4.25;;
81801;SDS011;71199;52.490;5.448;2023-07-31T01:05:34;11.57;;;3.67;;
81801;SDS011;71199;52.490;5.448;2023-07-31T01:10:54;11.70;;;4.07;;
81801;SDS011;71199;52.490;5.448;2023-07-31T01:13:24;9.23;;;3.67;;
81801;SDS011;71199;52.490;5.448;2023-07-31T01:15:49;15.77;;;4.28;;
81801;SDS011;71199;52.490;5.448;2023-07-31T01:18:15;16.03;;;3.87;;
81801;SDS011;71199;52.490;5.448;2023-07-31T01:20:41;14.53;;;4.03;;
81801;SDS011;71199;52.490;5.448;2023-07-31T01:23:31;13.25;;;3.70;;
81801;SDS011;71199;52.490;5.448;2023-07-31T01:26:12;11.68;;;4.00;;
81801;SDS011;71199;52.490;5.448;2023-07-31T01:29:47;16.70;;;4.10;;
81801;SDS011;71199;52.490;5.448;2023-07-31T01:31:41;9.23;;;3.28;;
81801;SDS011;71199;52.490;5.448;2023-07-31T01:34:11;8.75;;;3.28;;
81801;SDS011;71199;52.490;5.448;2023-07-31T01:36:39;13.05;;;3.80;;
81801;SDS011;71199;52.490;5.448;2023-07-31T01:39:04;12.63;;;4.20;;
81801;SDS011;71199;52.490;5.448;2023-07-31T01:41:30;11.55;;;3.80;;
81801;SDS011;71199;52.490;5.448;2023-07-31T01:43:55;9.70;;;3.42;;
81801;SDS011;71199;52.490;5.448;2023-07-31T01:46:20;10.60;;;3.83;;
81801;SDS011;71199;52.490;5.448;2023-07-31T01:48:46;10.48;;;3.60;;
81801;SDS011;71199;52.490;5.448;2023-07-31T01:51:11;13.40;;;3.90;;
81801;SDS011;71199;52.490;5.448;2023-07-31T01:53:36;11.70;;;3.63;;
81801;SDS011;71199;52.490;5.448;2023-07-31T01:56:02;8.63;;;3.73;;
81801;SDS011;71199;52.490;5.448;2023-07-31T01:58:27;16.10;;;3.97;;
81801;SDS011;71199;52.490;5.448;2023-07-31T02:00:53;18.23;;;4.93;;
81801;SDS011;71199;52.490;5.448;2023-07-31T02:03:18;16.83;;;5.40;;
81801;SDS011;71199;52.490;5.448;2023-07-31T02:05:47;14.75;;;5.45;;
81801;SDS011;71199;52.490;5.448;2023-07-31T02:08:14;16.20;;;5.20;;
81801;SDS011;71199;52.490;5.448;2023-07-31T02:10:40;15.18;;;4.88;;
81801;SDS011;71199;52.490;5.448;2023-07-31T02:13:05;22.85;;;5.65;;
81801;SDS011;71199;52.490;5.448;2023-07-31T02:15:31;14.85;;;4.40;;
81801;SDS011;71199;52.490;5.448;2023-07-31T02:17:56;12.45;;;4.55;;
81801;SDS011;71199;52.490;5.448;2023-07-31T02:20:22;13.07;;;4.20;;
81801;SDS011;71199;52.490;5.448;2023-07-31T02:22:47;12.68;;;4.45;;
81801;SDS011;71199;52.490;5.448;2023-07-31T02:25:12;11.20;;;4.20;;
81801;SDS011;71199;52.490;5.448;2023-07-31T02:27:38;19.52;;;4.93;;
81801;SDS011;71199;52.490;5.448;2023-07-31T02:30:04;20.35;;;5.40;;
81801;SDS011;71199;52.490;5.448;2023-07-31T02:32:29;17.05;;;6.07;;
81801;SDS011;71199;52.490;5.448;2023-07-31T02:34:55;25.48;;;5.95;;
81801;SDS011;71199;52.490;5.448;2023-07-31T02:37:20;24.03;;;6.77;;
81801;SDS011;71199;52.490;5.448;2023-07-31T02:39:45;22.92;;;6.25;;
81801;SDS011;71199;52.490;5.448;2023-07-31T02:42:12;23.25;;;7.50;;
81801;SDS011;71199;52.490;5.448;2023-07-31T02:47:03;21.50;;;6.18;;
81801;SDS011;71199;52.490;5.448;2023-07-31T02:49:29;23.88;;;5.97;;
81801;SDS011;71199;52.490;5.448;2023-07-31T02:51:54;21.57;;;6.20;;
81801;SDS011;71199;52.490;5.448;2023-07-31T02:54:19;20.17;;;6.40;;
81801;SDS011;71199;52.490;5.448;2023-07-31T02:56:46;17.80;;;5.82;;
81801;SDS011;71199;52.490;5.448;2023-07-31T02:59:12;20.52;;;7.60;;
81801;SDS011;71199;52.490;5.448;2023-07-31T03:01:37;27.33;;;6.20;;
81801;SDS011;71199;52.490;5.448;2023-07-31T03:04:03;29.05;;;7.47;;
81801;SDS011;71199;52.490;5.448;2023-07-31T03:06:28;37.95;;;8.15;;
81801;SDS011;71199;52.490;5.448;2023-07-31T03:08:54;24.20;;;7.10;;
81801;SDS011;71199;52.490;5.448;2023-07-31T03:11:19;30.85;;;7.70;;
81801;SDS011;71199;52.490;5.448;2023-07-31T03:13:45;24.03;;;7.07;;
81801;SDS011;71199;52.490;5.448;2023-07-31T03:16:10;20.13;;;5.97;;
81801;SDS011;71199;52.490;5.448;2023-07-31T03:18:35;27.90;;;7.97;;
81801;SDS011;71199;52.490;5.448;2023-07-31T03:21:01;23.80;;;6.90;;
81801;SDS011;71199;52.490;5.448;2023-07-31T03:23:26;26.67;;;6.77;;
81801;SDS011;71199;52.490;5.448;2023-07-31T03:25:58;23.57;;;6.60;;
81801;SDS011;71199;52.490;5.448;2023-07-31T03:28:24;25.40;;;8.63;;
81801;SDS011;71199;52.490;5.448;2023-07-31T03:30:50;27.27;;;6.55;;
81801;SDS011;71199;52.490;5.448;2023-07-31T03:33:16;17.83;;;5.75;;
81801;SDS011;71199;52.490;5.448;2023-07-31T03:35:42;24.90;;;7.10;;
81801;SDS011;71199;52.490;5.448;2023-07-31T03:38:07;32.60;;;7.63;;
81801;SDS011;71199;52.490;5.448;2023-07-31T03:40:32;23.92;;;6.95;;
81801;SDS011;71199;52.490;5.448;2023-07-31T03:42:58;33.07;;;7.57;;
81801;SDS011;71199;52.490;5.448;2023-07-31T03:45:23;24.47;;;8.00;;
81801;SDS011;71199;52.490;5.448;2023-07-31T03:47:48;25.77;;;7.07;;
81801;SDS011;71199;52.490;5.448;2023-07-31T03:50:14;21.60;;;7.32;;
81801;SDS011;71199;52.490;5.448;2023-07-31T03:52:40;26.48;;;6.93;;
81801;SDS011;71199;52.490;5.448;2023-07-31T03:55:06;22.75;;;7.63;;
81801;SDS011;71199;52.490;5.448;2023-07-31T03:57:32;24.38;;;6.88;;
81801;SDS011;71199;52.490;5.448;2023-07-31T03:59:57;24.10;;;6.45;;
81801;SDS011;71199;52.490;5.448;2023-07-31T04:02:23;30.98;;;6.95;;
81801;SDS011;71199;52.490;5.448;2023-07-31T04:04:48;21.52;;;6.32;;
81801;SDS011;71199;52.490;5.448;2023-07-31T04:07:14;25.80;;;7.68;;
81801;SDS011;71199;52.490;5.448;2023-07-31T04:09:39;25.40;;;7.80;;
81801;SDS011;71199;52.490;5.448;2023-07-31T04:12:05;28.90;;;7.33;;
81801;SDS011;71199;52.490;5.448;2023-07-31T04:14:30;29.40;;;7.20;;
81801;SDS011;71199;52.490;5.448;2023-07-31T04:16:55;23.50;;;7.47;;
81801;SDS011;71199;52.490;5.448;2023-07-31T04:19:21;29.30;;;7.83;;
81801;SDS011;71199;52.490;5.448;2023-07-31T04:21:46;22.63;;;6.15;;
81801;SDS011;71199;52.490;5.448;2023-07-31T04:24:11;26.97;;;6.97;;
81801;SDS011;71199;52.490;5.448;2023-07-31T04:26:37;28.40;;;7.43;;
81801;SDS011;71199;52.490;5.448;2023-07-31T04:29:02;26.97;;;7.47;;
81801;SDS011;71199;52.490;5.448;2023-07-31T04:31:28;31.98;;;7.70;;
81801;SDS011;71199;52.490;5.448;2023-07-31T04:33:53;32.97;;;7.40;;
81801;SDS011;71199;52.490;5.448;2023-07-31T04:36:18;32.17;;;8.23;;
81801;SDS011;71199;52.490;5.448;2023-07-31T04:38:44;27.77;;;8.40;;
81801;SDS011;71199;52.490;5.448;2023-07-31T04:41:09;28.10;;;7.57;;
81801;SDS011;71199;52.490;5.448;2023-07-31T04:43:34;29.37;;;7.30;;
81801;SDS011;71199;52.490;5.448;2023-07-31T04:46:00;29.52;;;7.57;;
81801;SDS011;71199;52.490;5.448;2023-07-31T04:48:25;32.72;;;7.65;;
81801;SDS011;71199;52.490;5.448;2023-07-31T04:50:51;26.27;;;7.27;;
81801;SDS011;71199;52.490;5.448;2023-07-31T04:53:16;29.70;;;9.07;;
81801;SDS011;71199;52.490;5.448;2023-07-31T04:55:41;32.00;;;7.93;;
81801;SDS011;71199;52.490;5.448;2023-07-31T04:58:07;40.13;;;8.20;;
81801;SDS011;71199;52.490;5.448;2023-07-31T05:00:32;30.42;;;8.45;;
81801;SDS011;71199;52.490;5.448;2023-07-31T05:02:57;39.57;;;11.33;;
81801;SDS011;71199;52.490;5.448;2023-07-31T05:05:23;25.83;;;7.25;;
81801;SDS011;71199;52.490;5.448;2023-07-31T05:07:48;38.00;;;9.65;;
81801;SDS011;71199;52.490;5.448;2023-07-31T05:10:13;32.43;;;7.57;;
81801;SDS011;71199;52.490;5.448;2023-07-31T05:12:39;24.48;;;7.72;;
81801;SDS011;71199;52.490;5.448;2023-07-31T05:15:04;37.90;;;9.30;;
81801;SDS011;71199;52.490;5.448;2023-07-31T05:17:30;23.73;;;7.95;;
81801;SDS011;71199;52.490;5.448;2023-07-31T05:19:55;22.20;;;7.50;;
81801;SDS011;71199;52.490;5.448;2023-07-31T05:22:21;32.50;;;7.53;;
81801;SDS011;71199;52.490;5.448;2023-07-31T05:24:46;20.75;;;8.13;;
81801;SDS011;71199;52.490;5.448;2023-07-31T05:27:12;28.75;;;8.15;;
81801;SDS011;71199;52.490;5.448;2023-07-31T05:29:40;27.30;;;6.68;;
81801;SDS011;71199;52.490;5.448;2023-07-31T05:32:05;21.55;;;6.50;;
81801;SDS011;71199;52.490;5.448;2023-07-31T05:34:31;20.70;;;5.90;;
81801;SDS011;71199;52.490;5.448;2023-07-31T05:36:57;21.88;;;6.05;;
81801;SDS011;71199;52.490;5.448;2023-07-31T05:39:22;20.73;;;6.93;;
81801;SDS011;71199;52.490;5.448;2023-07-31T05:41:47;24.47;;;7.13;;
81801;SDS011;71199;52.490;5.448;2023-07-31T05:44:13;21.77;;;6.65;;
81801;SDS011;71199;52.490;5.448;2023-07-31T05:46:38;19.73;;;6.57;;
81801;SDS011;71199;52.490;5.448;2023-07-31T05:49:03;20.10;;;6.33;;
81801;SDS011;71199;52.490;5.448;2023-07-31T05:51:29;15.63;;;5.95;;
81801;SDS011;71199;52.490;5.448;2023-07-31T05:53:54;12.07;;;5.33;;
81801;SDS011;71199;52.490;5.448;2023-07-31T05:56:20;15.18;;;5.63;;
81801;SDS011;71199;52.490;5.448;2023-07-31T05:58:45;10.00;;;4.32;;
81801;SDS011;71199;52.490;5.448;2023-07-31T06:01:10;9.27;;;4.03;;
81801;SDS011;71199;52.490;5.448;2023-07-31T06:03:36;9.07;;;4.15;;
81801;SDS011;71199;52.490;5.448;2023-07-31T06:06:01;6.90;;;3.10;;
81801;SDS011;71199;52.490;5.448;2023-07-31T06:08:27;8.52;;;3.90;;
81801;SDS011;71199;52.490;5.448;2023-07-31T06:10:52;6.68;;;3.72;;
81801;SDS011;71199;52.490;5.448;2023-07-31T06:13:18;4.68;;;2.88;;
81801;SDS011;71199;52.490;5.448;2023-07-31T06:15:43;6.20;;;3.20;;
81801;SDS011;71199;52.490;5.448;2023-07-31T06:18:08;6.97;;;2.85;;
81801;SDS011;71199;52.490;5.448;2023-07-31T06:20:35;7.55;;;3.28;;
81801;SDS011;71199;52.490;5.448;2023-07-31T06:23:00;4.47;;;2.60;;
81801;SDS011;71199;52.490;5.448;2023-07-31T06:25:26;5.10;;;2.60;;
81801;SDS011;71199;52.490;5.448;2023-07-31T06:27:51;4.00;;;2.63;;
81801;SDS011;71199;52.490;5.448;2023-07-31T06:30:16;5.40;;;2.73;;
81801;SDS011;71199;52.490;5.448;2023-07-31T06:32:42;4.38;;;2.70;;
81801;SDS011;71199;52.490;5.448;2023-07-31T06:35:08;4.93;;;2.45;;
81801;SDS011;71199;52.490;5.448;2023-07-31T06:37:33;5.80;;;2.97;;
81801;SDS011;71199;52.490;5.448;2023-07-31T06:39:59;5.67;;;2.60;;
81801;SDS011;71199;52.490;5.448;2023-07-31T06:42:24;5.50;;;2.63;;
81801;SDS011;71199;52.490;5.448;2023-07-31T06:44:49;6.88;;;2.90;;
81801;SDS011;71199;52.490;5.448;2023-07-31T06:47:15;4.18;;;2.30;;
81801;SDS011;71199;52.490;5.448;2023-07-31T06:49:40;6.63;;;2.58;;
81801;SDS011;71199;52.490;5.448;2023-07-31T06:52:06;5.30;;;2.50;;
81801;SDS011;71199;52.490;5.448;2023-07-31T06:54:31;6.40;;;2.40;;
81801;SDS011;71199;52.490;5.448;2023-07-31T06:56:56;5.00;;;2.42;;
81801;SDS011;71199;52.490;5.448;2023-07-31T06:59:22;5.47;;;2.53;;
81801;SDS011;71199;52.490;5.448;2023-07-31T07:01:47;5.78;;;2.60;;
81801;SDS011;71199;52.490;5.448;2023-07-31T07:04:13;4.18;;;2.72;;
81801;SDS011;71199;52.490;5.448;2023-07-31T07:06:39;4.55;;;2.60;;
81801;SDS011;71199;52.490;5.448;2023-07-31T07:09:04;5.80;;;2.20;;
81801;SDS011;71199;52.490;5.448;2023-07-31T07:11:30;6.03;;;2.40;;
81801;SDS011;71199;52.490;5.448;2023-07-31T07:13:56;4.03;;;2.10;;
81801;SDS011;71199;52.490;5.448;2023-07-31T07:16:21;3.80;;;2.10;;
81801;SDS011;71199;52.490;5.448;2023-07-31T07:18:46;4.35;;;2.30;;
81801;SDS011;71199;52.490;5.448;2023-07-31T07:21:12;4.93;;;2.20;;
81801;SDS011;71199;52.490;5.448;2023-07-31T07:23:40;5.13;;;2.47;;
81801;SDS011;71199;52.490;5.448;2023-07-31T07:26:06;4.68;;;2.03;;
81801;SDS011;71199;52.490;5.448;2023-07-31T07:28:32;5.50;;;1.80;;
81801;SDS011;71199;52.490;5.448;2023-07-31T07:30:57;3.03;;;1.88;;
81801;SDS011;71199;52.490;5.448;2023-07-31T07:33:23;3.45;;;1.50;;
81801;SDS011;71199;52.490;5.448;2023-07-31T07:35:48;5.47;;;2.00;;
81801;SDS011;71199;52.490;5.448;2023-07-31T07:38:14;3.83;;;1.77;;
81801;SDS011;71199;52.490;5.448;2023-07-31T07:40:40;4.03;;;1.60;;
81801;SDS011;71199;52.490;5.448;2023-07-31T07:43:05;3.00;;;1.70;;
81801;SDS011;71199;52.490;5.448;2023-07-31T07:45:31;2.92;;;1.70;;
81801;SDS011;71199;52.490;5.448;2023-07-31T07:47:56;3.97;;;1.92;;
81801;SDS011;71199;52.490;5.448;2023-07-31T07:50:22;2.40;;;1.63;;
81801;SDS011;71199;52.490;5.448;2023-07-31T07:52:48;4.27;;;1.77;;
81801;SDS011;71199;52.490;5.448;2023-07-31T07:55:13;2.67;;;1.70;;
81801;SDS011;71199;52.490;5.448;2023-07-31T07:57:39;2.88;;;1.52;;
81801;SDS011;71199;52.490;5.448;2023-07-31T08:00:04;2.90;;;1.52;;
81801;SDS011;71199;52.490;5.448;2023-07-31T08:02:30;3.85;;;1.60;;
81801;SDS011;71199;52.490;5.448;2023-07-31T08:04:56;3.58;;;1.50;;
81801;SDS011;71199;52.490;5.448;2023-07-31T08:07:21;2.57;;;1.30;;
81801;SDS011;71199;52.490;5.448;2023-07-31T08:09:46;2.92;;;1.60;;
81801;SDS011;71199;52.490;5.448;2023-07-31T08:12:12;2.37;;;1.50;;
81801;SDS011;71199;52.490;5.448;2023-07-31T08:14:37;2.40;;;1.42;;
81801;SDS011;71199;52.490;5.448;2023-07-31T08:17:03;2.75;;;1.67;;
81801;SDS011;71199;52.490;5.448;2023-07-31T08:19:28;3.97;;;1.65;;
81801;SDS011;71199;52.490;5.448;2023-07-31T08:21:54;2.25;;;1.45;;
81801;SDS011;71199;52.490;5.448;2023-07-31T08:24:20;2.47;;;1.45;;
81801;SDS011;71199;52.490;5.448;2023-07-31T08:26:45;3.33;;;1.80;;
81801;SDS011;71199;52.490;5.448;2023-07-31T08:29:11;2.65;;;1.80;;
81801;SDS011;71199;52.490;5.448;2023-07-31T08:31:37;2.53;;;1.50;;
81801;SDS011;71199;52.490;5.448;2023-07-31T08:34:02;3.40;;;1.40;;
81801;SDS011;71199;52.490;5.448;2023-07-31T08:36:28;2.30;;;1.33;;
81801;SDS011;71199;52.490;5.448;2023-07-31T08:38:53;3.25;;;1.23;;
81801;SDS011;71199;52.490;5.448;2023-07-31T08:41:19;2.00;;;1.30;;
81801;SDS011;71199;52.490;5.448;2023-07-31T08:43:47;2.00;;;1.30;;
81801;SDS011;71199;52.490;5.448;2023-07-31T08:46:14;2.10;;;1.40;;
81801;SDS011;71199;52.490;5.448;2023-07-31T08:48:41;1.70;;;1.00;;
81801;SDS011;71199;52.490;5.448;2023-07-31T08:53:32;2.97;;;0.93;;
81801;SDS011;71199;52.490;5.448;2023-07-31T08:55:58;4.00;;;1.20;;
81801;SDS011;71199;52.490;5.448;2023-07-31T08:58:24;2.92;;;1.13;;
81801;SDS011;71199;52.490;5.448;2023-07-31T09:00:52;2.95;;;1.00;;
81801;SDS011;71199;52.490;5.448;2023-07-31T09:03:20;2.17;;;1.30;;
81801;SDS011;71199;52.490;5.448;2023-07-31T09:05:48;1.90;;;1.08;;
81801;SDS011;71199;52.490;5.448;2023-07-31T09:08:16;2.60;;;0.95;;
81801;SDS011;71199;52.490;5.448;2023-07-31T09:10:44;5.10;;;1.27;;
81801;SDS011;71199;52.490;5.448;2023-07-31T09:15:37;2.20;;;1.10;;
81801;SDS011;71199;52.490;5.448;2023-07-31T09:18:03;2.10;;;1.20;;
81801;SDS011;71199;52.490;5.448;2023-07-31T09:20:31;2.97;;;1.15;;
81801;SDS011;71199;52.490;5.448;2023-07-31T09:23:02;2.25;;;1.15;;
81801;SDS011;71199;52.490;5.448;2023-07-31T09:25:34;2.58;;;1.20;;
81801;SDS011;71199;52.490;5.448;2023-07-31T09:28:04;1.80;;;1.00;;
81801;SDS011;71199;52.490;5.448;2023-07-31T09:33:12;1.88;;;1.10;;
81801;SDS011;71199;52.490;5.448;2023-07-31T09:35:38;2.65;;;1.17;;
81801;SDS011;71199;52.490;5.448;2023-07-31T09:38:09;1.70;;;0.90;;
81801;SDS011;71199;52.490;5.448;2023-07-31T09:40:39;1.88;;;0.93;;
81801;SDS011;71199;52.490;5.448;2023-07-31T09:43:06;2.65;;;1.00;;
81801;SDS011;71199;52.490;5.448;2023-07-31T09:45:43;1.70;;;0.90;;
81801;SDS011;71199;52.490;5.448;2023-07-31T09:48:10;2.03;;;0.82;;
81801;SDS011;71199;52.490;5.448;2023-07-31T09:50:42;1.70;;;0.90;;
81801;SDS011;71199;52.490;5.448;2023-07-31T09:53:12;4.30;;;1.10;;
81801;SDS011;71199;52.490;5.448;2023-07-31T09:55:38;2.72;;;1.02;;
81801;SDS011;71199;52.490;5.448;2023-07-31T09:58:06;4.72;;;1.80;;
81801;SDS011;71199;52.490;5.448;2023-07-31T10:00:32;3.85;;;1.67;;
81801;SDS011;71199;52.490;5.448;2023-07-31T10:02:58;5.35;;;1.67;;
81801;SDS011;71199;52.490;5.448;2023-07-31T10:05:28;3.20;;;1.65;;
81801;SDS011;71199;52.490;5.448;2023-07-31T10:07:57;5.88;;;1.90;;
81801;SDS011;71199;52.490;5.448;2023-07-31T10:10:23;3.35;;;2.03;;
81801;SDS011;71199;52.490;5.448;2023-07-31T10:12:50;5.75;;;2.40;;
81801;SDS011;71199;52.490;5.448;2023-07-31T10:15:17;5.45;;;1.92;;
81801;SDS011;71199;52.490;5.448;2023-07-31T10:20:11;10.65;;;2.55;;
81801;SDS011;71199;52.490;5.448;2023-07-31T10:22:37;6.70;;;2.95;;
81801;SDS011;71199;52.490;5.448;2023-07-31T10:25:03;8.18;;;2.90;;
81801;SDS011;71199;52.490;5.448;2023-07-31T10:27:29;8.25;;;2.65;;
81801;SDS011;71199;52.490;5.448;2023-07-31T10:29:55;6.22;;;2.08;;
81801;SDS011;71199;52.490;5.448;2023-07-31T10:32:22;6.50;;;2.30;;
81801;SDS011;71199;52.490;5.448;2023-07-31T10:34:50;5.75;;;2.33;;
81801;SDS011;71199;52.490;5.448;2023-07-31T10:37:23;7.63;;;2.50;;
81801;SDS011;71199;52.490;5.448;2023-07-31T10:40:00;6.68;;;2.17;;
81801;SDS011;71199;52.490;5.448;2023-07-31T10:42:31;5.75;;;2.03;;
81801;SDS011;71199;52.490;5.448;2023-07-31T10:45:04;6.97;;;2.50;;
81801;SDS011;71199;52.490;5.448;2023-07-31T10:47:38;8.73;;;2.40;;
81801;SDS011;71199;52.490;5.448;2023-07-31T10:50:14;9.48;;;2.38;;
81801;SDS011;71199;52.490;5.448;2023-07-31T10:52:48;7.05;;;2.75;;
81801;SDS011;71199;52.490;5.448;2023-07-31T10:57:54;11.30;;;3.05;;
81801;SDS011;71199;52.490;5.448;2023-07-31T11:02:56;11.40;;;2.47;;
81801;SDS011;71199;52.490;5.448;2023-07-31T11:05:40;10.82;;;2.90;;
81801;SDS011;71199;52.490;5.448;2023-07-31T11:08:25;12.95;;;2.95;;
81801;SDS011;71199;52.490;5.448;2023-07-31T11:13:34;10.18;;;3.05;;
81801;SDS011;71199;52.490;5.448;2023-07-31T11:16:04;16.52;;;3.47;;
81801;SDS011;71199;52.490;5.448;2023-07-31T11:18:29;12.93;;;3.30;;
81801;SDS011;71199;52.490;5.448;2023-07-31T11:20:55;7.22;;;2.70;;
81801;SDS011;71199;52.490;5.448;2023-07-31T11:23:21;8.23;;;2.40;;
81801;SDS011;71199;52.490;5.448;2023-07-31T11:25:47;13.10;;;3.40;;
81801;SDS011;71199;52.490;5.448;2023-07-31T11:28:13;9.90;;;2.55;;
81801;SDS011;71199;52.490;5.448;2023-07-31T11:30:40;8.00;;;2.63;;
81801;SDS011;71199;52.490;5.448;2023-07-31T11:33:07;11.55;;;3.65;;
81801;SDS011;71199;52.490;5.448;2023-07-31T11:35:35;10.70;;;3.38;;
81801;SDS011;71199;52.490;5.448;2023-07-31T11:38:06;12.23;;;2.85;;
81801;SDS011;71199;52.490;5.448;2023-07-31T11:40:40;12.57;;;2.97;;
81801;SDS011;71199;52.490;5.448;2023-07-31T11:43:06;10.52;;;2.75;;
81801;SDS011;71199;52.490;5.448;2023-07-31T11:45:32;9.93;;;2.83;;
81801;SDS011;71199;52.490;5.448;2023-07-31T11:47:58;8.45;;;3.13;;
81801;SDS011;71199;52.490;5.448;2023-07-31T11:50:23;8.57;;;2.83;;
81801;SDS011;71199;52.490;5.448;2023-07-31T11:52:59;11.07;;;3.10;;
81801;SDS011;71199;52.490;5.448;2023-07-31T11:55:28;11.57;;;3.30;;
81801;SDS011;71199;52.490;5.448;2023-07-31T11:57:54;11.35;;;3.45;;
81801;SDS011;71199;52.490;5.448;2023-07-31T12:00:22;9.10;;;2.92;;
81801;SDS011;71199;52.490;5.448;2023-07-31T12:02:48;9.70;;;3.15;;
81801;SDS011;71199;52.490;5.448;2023-07-31T12:05:15;10.63;;;3.25;;
81801;SDS011;71199;52.490;5.448;2023-07-31T12:07:51;10.15;;;3.30;;
81801;SDS011;71199;52.490;5.448;2023-07-31T12:10:31;9.38;;;2.58;;
81801;SDS011;71199;52.490;5.448;2023-07-31T12:13:04;7.55;;;2.60;;
81801;SDS011;71199;52.490;5.448;2023-07-31T12:15:37;10.90;;;3.22;;
81801;SDS011;71199;52.490;5.448;2023-07-31T12:18:08;9.18;;;2.65;;
81801;SDS011;71199;52.490;5.448;2023-07-31T12:20:42;9.65;;;3.00;;
81801;SDS011;71199;52.490;5.448;2023-07-31T12:23:16;8.38;;;3.00;;
81801;SDS011;71199;52.490;5.448;2023-07-31T12:25:43;11.93;;;3.05;;
81801;SDS011;71199;52.490;5.448;2023-07-31T12:28:08;7.57;;;2.60;;
81801;SDS011;71199;52.490;5.448;2023-07-31T12:30:37;15.98;;;3.25;;
81801;SDS011;71199;52.490;5.448;2023-07-31T12:33:05;8.38;;;2.75;;
81801;SDS011;71199;52.490;5.448;2023-07-31T12:35:43;10.93;;;2.67;;
81801;SDS011;71199;52.490;5.448;2023-07-31T12:38:11;5.53;;;2.75;;
81801;SDS011;71199;52.490;5.448;2023-07-31T12:40:37;12.52;;;3.20;;
81801;SDS011;71199;52.490;5.448;2023-07-31T12:45:30;5.30;;;2.67;;
81801;SDS011;71199;52.490;5.448;2023-07-31T12:47:56;10.40;;;2.40;;
81801;SDS011;71199;52.490;5.448;2023-07-31T12:50:22;8.95;;;2.75;;
81801;SDS011;71199;52.490;5.448;2023-07-31T12:52:48;8.75;;;3.17;;
81801;SDS011;71199;52.490;5.448;2023-07-31T12:55:14;9.57;;;3.05;;
81801;SDS011;71199;52.490;5.448;2023-07-31T12:57:40;10.45;;;2.92;;
81801;SDS011;71199;52.490;5.448;2023-07-31T13:00:07;8.25;;;2.80;;
81801;SDS011;71199;52.490;5.448;2023-07-31T13:02:33;20.13;;;3.22;;
81801;SDS011;71199;52.490;5.448;2023-07-31T13:04:58;11.13;;;3.00;;
81801;SDS011;71199;52.490;5.448;2023-07-31T13:07:23;6.87;;;2.70;;
81801;SDS011;71199;52.490;5.448;2023-07-31T13:09:49;11.35;;;3.92;;
81801;SDS011;71199;52.490;5.448;2023-07-31T13:12:14;7.43;;;2.97;;
81801;SDS011;71199;52.490;5.448;2023-07-31T13:14:39;5.03;;;2.23;;
81801;SDS011;71199;52.490;5.448;2023-07-31T13:17:05;7.77;;;2.20;;
81801;SDS011;71199;52.490;5.448;2023-07-31T13:19:30;6.53;;;2.58;;
81801;SDS011;71199;52.490;5.448;2023-07-31T13:21:55;6.68;;;2.40;;
81801;SDS011;71199;52.490;5.448;2023-07-31T13:24:21;11.83;;;3.33;;
81801;SDS011;71199;52.490;5.448;2023-07-31T13:26:46;6.23;;;2.63;;
81801;SDS011;71199;52.490;5.448;2023-07-31T13:29:11;7.70;;;2.97;;
81801;SDS011;71199;52.490;5.448;2023-07-31T13:31:37;8.13;;;3.00;;
81801;SDS011;71199;52.490;5.448;2023-07-31T13:34:02;9.07;;;2.50;;
81801;SDS011;71199;52.490;5.448;2023-07-31T13:36:28;6.95;;;2.50;;
81801;SDS011;71199;52.490;5.448;2023-07-31T13:38:53;7.20;;;2.15;;
81801;SDS011;71199;52.490;5.448;2023-07-31T13:41:18;7.77;;;2.30;;
81801;SDS011;71199;52.490;5.448;2023-07-31T13:43:44;7.63;;;2.50;;
81801;SDS011;71199;52.490;5.448;2023-07-31T13:46:09;7.75;;;2.30;;
81801;SDS011;71199;52.490;5.448;2023-07-31T13:48:36;9.18;;;2.55;;
81801;SDS011;71199;52.490;5.448;2023-07-31T13:51:01;6.43;;;2.35;;
81801;SDS011;71199;52.490;5.448;2023-07-31T13:53:27;9.90;;;2.28;;
81801;SDS011;71199;52.490;5.448;2023-07-31T13:55:52;5.77;;;2.23;;
81801;SDS011;71199;52.490;5.448;2023-07-31T13:58:18;6.13;;;2.20;;
81801;SDS011;71199;52.490;5.448;2023-07-31T14:00:43;4.50;;;2.17;;
81801;SDS011;71199;52.490;5.448;2023-07-31T14:03:08;5.60;;;2.07;;
81801;SDS011;71199;52.490;5.448;2023-07-31T14:05:34;7.10;;;2.88;;
81801;SDS011;71199;52.490;5.448;2023-07-31T14:08:00;5.47;;;2.00;;
81801;SDS011;71199;52.490;5.448;2023-07-31T14:10:25;4.63;;;2.00;;
81801;SDS011;71199;52.490;5.448;2023-07-31T14:12:51;5.22;;;2.05;;
81801;SDS011;71199;52.490;5.448;2023-07-31T14:15:16;6.10;;;2.50;;
81801;SDS011;71199;52.490;5.448;2023-07-31T14:17:42;10.53;;;2.47;;
81801;SDS011;71199;52.490;5.448;2023-07-31T14:20:07;9.60;;;2.50;;
81801;SDS011;71199;52.490;5.448;2023-07-31T14:22:33;7.28;;;2.47;;
81801;SDS011;71199;52.490;5.448;2023-07-31T14:24:59;7.38;;;2.15;;
81801;SDS011;71199;52.490;5.448;2023-07-31T14:27:25;9.25;;;2.88;;
81801;SDS011;71199;52.490;5.448;2023-07-31T14:29:50;9.02;;;2.47;;
81801;SDS011;71199;52.490;5.448;2023-07-31T14:32:16;8.57;;;2.88;;
81801;SDS011;71199;52.490;5.448;2023-07-31T14:34:41;7.30;;;2.63;;
81801;SDS011;71199;52.490;5.448;2023-07-31T14:37:06;8.82;;;2.65;;
81801;SDS011;71199;52.490;5.448;2023-07-31T14:39:32;10.90;;;2.93;;
81801;SDS011;71199;52.490;5.448;2023-07-31T14:41:57;8.47;;;2.90;;
81801;SDS011;71199;52.490;5.448;2023-07-31T14:44:22;7.00;;;2.13;;
81801;SDS011;71199;52.490;5.448;2023-07-31T14:46:48;7.07;;;2.97;;
81801;SDS011;71199;52.490;5.448;2023-07-31T14:49:13;8.20;;;2.73;;
81801;SDS011;71199;52.490;5.448;2023-07-31T14:51:39;6.18;;;2.20;;
81801;SDS011;71199;52.490;5.448;2023-07-31T14:54:04;6.47;;;2.53;;
81801;SDS011;71199;52.490;5.448;2023-07-31T14:56:29;6.22;;;2.10;;
81801;SDS011;71199;52.490;5.448;2023-07-31T14:58:55;4.53;;;2.03;;
81801;SDS011;71199;52.490;5.448;2023-07-31T15:01:20;4.07;;;2.13;;
81801;SDS011;71199;52.490;5.448;2023-07-31T15:03:45;5.68;;;2.40;;